sensor_id;sensor_type;location;lat;lon;timestamp;temperature;humidity
7496;DHT22;3789;47.064;15.482;2023-12-04T00:00:07;-5.20;99.90
7496;DHT22;3789;47.064;15.482;2023-12-04T00:02:49;-5.20;99.90
7496;DHT22;3789;47.064;15.482;2023-12-04T00:05:18;-5.20;99.90
7496;DHT22;3789;47.064;15.482;2023-12-04T00:07:47;-5.30;99.90
7496;DHT22;3789;47.064;15.482;2023-12-04T00:10:16;-5.30;99.90
7496;DHT22;3789;47.064;15.482;2023-12-04T00:12:45;-5.20;99.90
7496;DHT22;3789;47.064;15.482;2023-12-04T00:15:19;-5.00;99.90
7496;DHT22;3789;47.064;15.482;2023-12-04T00:17:49;-5.00;99.90
7496;DHT22;3789;47.064;15.482;2023-12-04T00:20:19;-4.90;99.90
7496;DHT22;3789;47.064;15.482;2023-12-04T00:22:50;-4.90;99.90
7496;DHT22;3789;47.064;15.482;2023-12-04T00:25:19;-4.90;99.90
7496;DHT22;3789;47.064;15.482;2023-12-04T00:27:47;-5.10;99.90
7496;DHT22;3789;47.064;15.482;2023-12-04T00:30:18;-5.20;99.90
7496;DHT22;3789;47.064;15.482;2023-12-04T00:32:48;-5.30;99.90
7496;DHT22;3789;47.064;15.482;2023-12-04T00:35:30;-5.30;99.90
7496;DHT22;3789;47.064;15.482;2023-12-04T00:38:08;-5.40;99.90
7496;DHT22;3789;47.064;15.482;2023-12-04T00:40:38;-5.20;99.90
7496;DHT22;3789;47.064;15.482;2023-12-04T00:43:06;-5.30;99.90
7496;DHT22;3789;47.064;15.482;2023-12-04T00:45:35;-5.10;99.90
7496;DHT22;3789;47.064;15.482;2023-12-04T00:48:10;-5.20;99.90
7496;DHT22;3789;47.064;15.482;2023-12-04T00:50:41;-5.30;99.90
7496;DHT22;3789;47.064;15.482;2023-12-04T00:53:10;-5.40;99.90
7496;DHT22;3789;47.064;15.482;2023-12-04T00:55:43;-5.40;99.90
7496;DHT22;3789;47.064;15.482;2023-12-04T00:58:15;-5.40;99.90
7496;DHT22;3789;47.064;15.482;2023-12-04T01:00:45;-5.40;99.90
7496;DHT22;3789;47.064;15.482;2023-12-04T01:03:19;-5.50;99.90
7496;DHT22;3789;47.064;15.482;2023-12-04T01:09:14;-5.60;99.90
7496;DHT22;3789;47.064;15.482;2023-12-04T01:11:44;-5.40;99.90
7496;DHT22;3789;47.064;15.482;2023-12-04T01:14:14;-5.30;99.90
7496;DHT22;3789;47.064;15.482;2023-12-04T01:16:48;-5.20;99.90
7496;DHT22;3789;47.064;15.482;2023-12-04T01:19:18;-5.20;99.90
7496;DHT22;3789;47.064;15.482;2023-12-04T01:21:52;-5.30;99.90
7496;DHT22;3789;47.064;15.482;2023-12-04T01:24:29;-5.30;99.90
7496;DHT22;3789;47.064;15.482;2023-12-04T01:26:59;-5.40;99.90
7496;DHT22;3789;47.064;15.482;2023-12-04T01:29:37;-5.40;99.90
7496;DHT22;3789;47.064;15.482;2023-12-04T01:32:08;-5.40;99.90
7496;DHT22;3789;47.064;15.482;2023-12-04T01:34:47;-5.50;99.90
7496;DHT22;3789;47.064;15.482;2023-12-04T01:37:18;-5.40;99.90
7496;DHT22;3789;47.064;15.482;2023-12-04T01:39:47;-5.40;99.90
7496;DHT22;3789;47.064;15.482;2023-12-04T01:42:17;-5.60;99.90
7496;DHT22;3789;47.064;15.482;2023-12-04T01:44:45;-5.70;99.90
7496;DHT22;3789;47.064;15.482;2023-12-04T01:47:15;-5.70;99.90
7496;DHT22;3789;47.064;15.482;2023-12-04T01:49:46;-5.70;99.90
7496;DHT22;3789;47.064;15.482;2023-12-04T01:52:24;-5.70;99.90
7496;DHT22;3789;47.064;15.482;2023-12-04T01:54:56;-5.70;99.90
7496;DHT22;3789;47.064;15.482;2023-12-04T01:57:25;-5.70;99.90
7496;DHT22;3789;47.064;15.482;2023-12-04T01:59:54;-5.60;99.90
7496;DHT22;3789;47.064;15.482;2023-12-04T02:02:33;-5.70;99.90
7496;DHT22;3789;47.064;15.482;2023-12-04T02:05:07;-5.70;99.90
7496;DHT22;3789;47.064;15.482;2023-12-04T02:07:37;-5.60;99.90
7496;DHT22;3789;47.064;15.482;2023-12-04T02:10:08;-5.60;99.90
7496;DHT22;3789;47.064;15.482;2023-12-04T02:12:41;-5.50;99.90
7496;DHT22;3789;47.064;15.482;2023-12-04T02:15:10;-5.30;99.90
7496;DHT22;3789;47.064;15.482;2023-12-04T02:17:41;-5.30;99.90
7496;DHT22;3789;47.064;15.482;2023-12-04T02:20:17;-5.40;99.90
7496;DHT22;3789;47.064;15.482;2023-12-04T02:22:45;-5.20;99.90
7496;DHT22;3789;47.064;15.482;2023-12-04T02:25:14;-5.20;99.90
7496;DHT22;3789;47.064;15.482;2023-12-04T02:28:07;-5.30;99.90
7496;DHT22;3789;47.064;15.482;2023-12-04T02:30:53;-5.40;99.90
7496;DHT22;3789;47.064;15.482;2023-12-04T02:33:23;-5.50;99.90
7496;DHT22;3789;47.064;15.482;2023-12-04T02:35:54;-5.50;99.90
7496;DHT22;3789;47.064;15.482;2023-12-04T02:38:24;-5.60;99.90
7496;DHT22;3789;47.064;15.482;2023-12-04T02:40:55;-5.70;99.90
7496;DHT22;3789;47.064;15.482;2023-12-04T02:43:25;-5.70;99.90
7496;DHT22;3789;47.064;15.482;2023-12-04T02:45:54;-5.80;99.90
7496;DHT22;3789;47.064;15.482;2023-12-04T02:48:25;-5.70;99.90
7496;DHT22;3789;47.064;15.482;2023-12-04T02:50:58;-5.70;99.90
7496;DHT22;3789;47.064;15.482;2023-12-04T02:53:30;-5.80;99.90
7496;DHT22;3789;47.064;15.482;2023-12-04T02:56:02;-5.80;99.90
7496;DHT22;3789;47.064;15.482;2023-12-04T02:58:33;-5.80;99.90
7496;DHT22;3789;47.064;15.482;2023-12-04T03:01:07;-5.80;99.90
7496;DHT22;3789;47.064;15.482;2023-12-04T03:03:43;-5.80;99.90
7496;DHT22;3789;47.064;15.482;2023-12-04T03:06:11;-5.90;99.90
7496;DHT22;3789;47.064;15.482;2023-12-04T03:08:51;-5.90;99.90
7496;DHT22;3789;47.064;15.482;2023-12-04T03:11:22;-5.90;99.90
7496;DHT22;3789;47.064;15.482;2023-12-04T03:14:00;-5.90;99.90
7496;DHT22;3789;47.064;15.482;2023-12-04T03:16:28;-5.90;99.90
7496;DHT22;3789;47.064;15.482;2023-12-04T03:19:01;-6.00;99.90
7496;DHT22;3789;47.064;15.482;2023-12-04T03:21:33;-5.90;99.90
7496;DHT22;3789;47.064;15.482;2023-12-04T03:24:03;-5.90;99.90
7496;DHT22;3789;47.064;15.482;2023-12-04T03:26:38;-6.00;99.90
7496;DHT22;3789;47.064;15.482;2023-12-04T03:29:14;-6.00;99.90
7496;DHT22;3789;47.064;15.482;2023-12-04T03:31:51;-6.20;99.90
7496;DHT22;3789;47.064;15.482;2023-12-04T03:34:21;-6.20;99.90
7496;DHT22;3789;47.064;15.482;2023-12-04T03:36:56;-6.20;99.90
7496;DHT22;3789;47.064;15.482;2023-12-04T03:39:35;-6.20;99.90
7496;DHT22;3789;47.064;15.482;2023-12-04T03:42:14;-6.10;99.90
7496;DHT22;3789;47.064;15.482;2023-12-04T03:44:46;-6.00;99.90
7496;DHT22;3789;47.064;15.482;2023-12-04T03:47:22;-6.00;99.90
7496;DHT22;3789;47.064;15.482;2023-12-04T03:49:59;-5.90;99.90
7496;DHT22;3789;47.064;15.482;2023-12-04T03:52:30;-5.80;99.90
7496;DHT22;3789;47.064;15.482;2023-12-04T03:55:01;-5.70;99.90
7496;DHT22;3789;47.064;15.482;2023-12-04T03:57:28;-5.70;99.90
7496;DHT22;3789;47.064;15.482;2023-12-04T04:00:00;-5.70;99.90
7496;DHT22;3789;47.064;15.482;2023-12-04T04:02:35;-5.70;99.90
7496;DHT22;3789;47.064;15.482;2023-12-04T04:05:07;-5.80;99.90
7496;DHT22;3789;47.064;15.482;2023-12-04T04:07:36;-5.80;99.90
7496;DHT22;3789;47.064;15.482;2023-12-04T04:10:08;-5.90;99.90
7496;DHT22;3789;47.064;15.482;2023-12-04T04:12:51;-5.80;99.90
7496;DHT22;3789;47.064;15.482;2023-12-04T04:15:54;-5.90;99.90
7496;DHT22;3789;47.064;15.482;2023-12-04T04:18:40;-5.90;99.90
7496;DHT22;3789;47.064;15.482;2023-12-04T04:21:44;-6.00;99.90
7496;DHT22;3789;47.064;15.482;2023-12-04T04:24:22;-6.10;99.90
7496;DHT22;3789;47.064;15.482;2023-12-04T04:27:42;-6.10;99.90
7496;DHT22;3789;47.064;15.482;2023-12-04T04:31:11;-6.20;99.90
7496;DHT22;3789;47.064;15.482;2023-12-04T04:34:10;-6.20;99.90
7496;DHT22;3789;47.064;15.482;2023-12-04T04:37:05;-6.40;99.90
7496;DHT22;3789;47.064;15.482;2023-12-04T04:39:55;-6.20;99.90
7496;DHT22;3789;47.064;15.482;2023-12-04T04:42:44;-6.30;99.90
7496;DHT22;3789;47.064;15.482;2023-12-04T04:45:20;-6.30;99.90
7496;DHT22;3789;47.064;15.482;2023-12-04T04:51:31;-6.10;99.90
7496;DHT22;3789;47.064;15.482;2023-12-04T04:54:32;-6.10;99.90
7496;DHT22;3789;47.064;15.482;2023-12-04T04:57:12;-6.30;99.90
7496;DHT22;3789;47.064;15.482;2023-12-04T04:59:46;-6.30;99.90
7496;DHT22;3789;47.064;15.482;2023-12-04T05:08:30;-6.50;99.90
7496;DHT22;3789;47.064;15.482;2023-12-04T05:11:16;-6.70;99.90
7496;DHT22;3789;47.064;15.482;2023-12-04T05:13:50;-6.60;99.90
7496;DHT22;3789;47.064;15.482;2023-12-04T05:16:19;-6.40;99.90
7496;DHT22;3789;47.064;15.482;2023-12-04T05:19:19;-6.40;99.90
7496;DHT22;3789;47.064;15.482;2023-12-04T05:22:13;-6.40;99.90
7496;DHT22;3789;47.064;15.482;2023-12-04T05:24:59;-6.30;99.90
7496;DHT22;3789;47.064;15.482;2023-12-04T05:27:39;-6.40;99.90
7496;DHT22;3789;47.064;15.482;2023-12-04T05:30:22;-6.50;99.90
7496;DHT22;3789;47.064;15.482;2023-12-04T05:33:07;-6.40;99.90
7496;DHT22;3789;47.064;15.482;2023-12-04T05:36:14;-6.40;99.90
7496;DHT22;3789;47.064;15.482;2023-12-04T05:38:54;-6.40;99.90
7496;DHT22;3789;47.064;15.482;2023-12-04T05:41:43;-6.50;99.90
7496;DHT22;3789;47.064;15.482;2023-12-04T05:44:34;-6.60;99.90
7496;DHT22;3789;47.064;15.482;2023-12-04T05:47:10;-6.60;99.90
7496;DHT22;3789;47.064;15.482;2023-12-04T05:49:57;-6.60;99.90
7496;DHT22;3789;47.064;15.482;2023-12-04T05:52:33;-6.40;99.90
7496;DHT22;3789;47.064;15.482;2023-12-04T05:55:48;-6.50;99.90
7496;DHT22;3789;47.064;15.482;2023-12-04T05:58:21;-6.50;99.90
7496;DHT22;3789;47.064;15.482;2023-12-04T06:01:04;-6.60;99.90
7496;DHT22;3789;47.064;15.482;2023-12-04T06:04:21;-6.60;99.90
7496;DHT22;3789;47.064;15.482;2023-12-04T06:07:19;-6.80;99.90
7496;DHT22;3789;47.064;15.482;2023-12-04T06:10:06;-6.80;99.90
7496;DHT22;3789;47.064;15.482;2023-12-04T06:16:06;-6.60;99.90
7496;DHT22;3789;47.064;15.482;2023-12-04T06:18:51;-6.80;99.90
7496;DHT22;3789;47.064;15.482;2023-12-04T06:21:36;-6.80;99.90
7496;DHT22;3789;47.064;15.482;2023-12-04T06:24:24;-6.80;99.90
7496;DHT22;3789;47.064;15.482;2023-12-04T06:27:24;-6.70;99.90
7496;DHT22;3789;47.064;15.482;2023-12-04T06:29:58;-6.60;99.90
7496;DHT22;3789;47.064;15.482;2023-12-04T06:35:33;-6.70;99.90
7496;DHT22;3789;47.064;15.482;2023-12-04T06:42:03;-6.50;99.90
7496;DHT22;3789;47.064;15.482;2023-12-04T06:44:56;-6.50;99.90
7496;DHT22;3789;47.064;15.482;2023-12-04T06:48:17;-6.50;99.90
7496;DHT22;3789;47.064;15.482;2023-12-04T06:51:00;-6.20;99.90
7496;DHT22;3789;47.064;15.482;2023-12-04T06:56:38;-6.20;99.90
7496;DHT22;3789;47.064;15.482;2023-12-04T06:59:42;-6.20;99.90
7496;DHT22;3789;47.064;15.482;2023-12-04T07:02:41;-6.10;99.90
7496;DHT22;3789;47.064;15.482;2023-12-04T07:05:34;-6.20;99.90
7496;DHT22;3789;47.064;15.482;2023-12-04T07:08:21;-6.20;99.90
7496;DHT22;3789;47.064;15.482;2023-12-04T07:12:03;-6.10;99.90
7496;DHT22;3789;47.064;15.482;2023-12-04T07:15:03;-5.90;99.90
7496;DHT22;3789;47.064;15.482;2023-12-04T07:17:49;-5.90;99.90
7496;DHT22;3789;47.064;15.482;2023-12-04T07:21:04;-6.00;99.90
7496;DHT22;3789;47.064;15.482;2023-12-04T07:24:14;-6.10;99.90
7496;DHT22;3789;47.064;15.482;2023-12-04T07:27:19;-6.10;99.90
7496;DHT22;3789;47.064;15.482;2023-12-04T07:33:25;-6.10;99.90
7496;DHT22;3789;47.064;15.482;2023-12-04T07:36:02;-6.10;99.90
7496;DHT22;3789;47.064;15.482;2023-12-04T07:38:58;-6.10;99.90
7496;DHT22;3789;47.064;15.482;2023-12-04T07:41:58;-6.00;99.90
7496;DHT22;3789;47.064;15.482;2023-12-04T07:44:50;-6.00;99.90
7496;DHT22;3789;47.064;15.482;2023-12-04T07:47:42;-5.90;99.90
7496;DHT22;3789;47.064;15.482;2023-12-04T07:50:22;-5.90;99.90
7496;DHT22;3789;47.064;15.482;2023-12-04T07:52:57;-5.80;99.90
7496;DHT22;3789;47.064;15.482;2023-12-04T07:55:33;-5.70;99.90
7496;DHT22;3789;47.064;15.482;2023-12-04T07:58:05;-5.50;99.90
7496;DHT22;3789;47.064;15.482;2023-12-04T08:00:35;-5.50;99.90
7496;DHT22;3789;47.064;15.482;2023-12-04T08:03:16;-5.50;99.90
7496;DHT22;3789;47.064;15.482;2023-12-04T08:06:02;-5.50;99.90
7496;DHT22;3789;47.064;15.482;2023-12-04T08:08:51;-5.40;99.90
7496;DHT22;3789;47.064;15.482;2023-12-04T08:11:40;-5.30;99.90
7496;DHT22;3789;47.064;15.482;2023-12-04T08:14:23;-5.20;99.90
7496;DHT22;3789;47.064;15.482;2023-12-04T08:16:58;-5.00;99.90
7496;DHT22;3789;47.064;15.482;2023-12-04T08:19:42;-4.80;99.90
7496;DHT22;3789;47.064;15.482;2023-12-04T08:22:20;-4.80;99.90
7496;DHT22;3789;47.064;15.482;2023-12-04T08:24:58;-4.70;99.90
7496;DHT22;3789;47.064;15.482;2023-12-04T08:27:40;-4.60;99.90
7496;DHT22;3789;47.064;15.482;2023-12-04T08:30:08;-4.50;99.90
7496;DHT22;3789;47.064;15.482;2023-12-04T08:32:39;-4.40;99.90
7496;DHT22;3789;47.064;15.482;2023-12-04T08:35:10;-4.20;99.90
7496;DHT22;3789;47.064;15.482;2023-12-04T08:37:42;-4.10;99.90
7496;DHT22;3789;47.064;15.482;2023-12-04T08:40:11;-3.90;99.90
7496;DHT22;3789;47.064;15.482;2023-12-04T08:42:46;-3.90;99.90
7496;DHT22;3789;47.064;15.482;2023-12-04T08:45:24;-3.70;99.90
7496;DHT22;3789;47.064;15.482;2023-12-04T08:47:58;-3.60;99.90
7496;DHT22;3789;47.064;15.482;2023-12-04T08:50:35;-3.80;99.90
7496;DHT22;3789;47.064;15.482;2023-12-04T08:53:10;-3.70;99.90
7496;DHT22;3789;47.064;15.482;2023-12-04T08:55:41;-3.40;99.90
7496;DHT22;3789;47.064;15.482;2023-12-04T08:58:09;-3.10;99.90
7496;DHT22;3789;47.064;15.482;2023-12-04T09:00:43;-3.10;99.90
7496;DHT22;3789;47.064;15.482;2023-12-04T09:03:13;-3.20;99.90
7496;DHT22;3789;47.064;15.482;2023-12-04T09:05:58;-3.30;99.90
7496;DHT22;3789;47.064;15.482;2023-12-04T09:08:29;-3.30;99.90
7496;DHT22;3789;47.064;15.482;2023-12-04T09:11:11;-3.30;99.90
7496;DHT22;3789;47.064;15.482;2023-12-04T09:13:50;-3.20;99.90
7496;DHT22;3789;47.064;15.482;2023-12-04T09:16:27;-3.10;99.90
7496;DHT22;3789;47.064;15.482;2023-12-04T09:19:05;-3.20;99.90
7496;DHT22;3789;47.064;15.482;2023-12-04T09:21:33;-3.10;99.90
7496;DHT22;3789;47.064;15.482;2023-12-04T09:24:03;-3.20;99.90
7496;DHT22;3789;47.064;15.482;2023-12-04T09:26:33;-3.20;99.90
7496;DHT22;3789;47.064;15.482;2023-12-04T09:29:02;-3.10;99.90
7496;DHT22;3789;47.064;15.482;2023-12-04T09:31:34;-3.00;99.90
7496;DHT22;3789;47.064;15.482;2023-12-04T09:34:06;-2.90;99.90
7496;DHT22;3789;47.064;15.482;2023-12-04T09:36:39;-2.70;99.90
7496;DHT22;3789;47.064;15.482;2023-12-04T09:39:09;-2.60;99.90
7496;DHT22;3789;47.064;15.482;2023-12-04T09:41:43;-2.40;99.90
7496;DHT22;3789;47.064;15.482;2023-12-04T09:44:15;-2.20;99.90
7496;DHT22;3789;47.064;15.482;2023-12-04T09:46:47;-2.00;99.90
7496;DHT22;3789;47.064;15.482;2023-12-04T09:49:17;-1.90;99.90
7496;DHT22;3789;47.064;15.482;2023-12-04T09:51:59;-1.70;99.90
7496;DHT22;3789;47.064;15.482;2023-12-04T09:54:29;-1.70;99.90
7496;DHT22;3789;47.064;15.482;2023-12-04T09:57:04;-1.60;99.90
7496;DHT22;3789;47.064;15.482;2023-12-04T09:59:36;-1.40;99.90
7496;DHT22;3789;47.064;15.482;2023-12-04T10:02:06;-1.40;99.90
7496;DHT22;3789;47.064;15.482;2023-12-04T10:04:36;-1.50;99.90
7496;DHT22;3789;47.064;15.482;2023-12-04T10:07:07;-1.60;99.90
7496;DHT22;3789;47.064;15.482;2023-12-04T10:09:38;-1.70;99.90
7496;DHT22;3789;47.064;15.482;2023-12-04T10:12:20;-1.50;99.90
7496;DHT22;3789;47.064;15.482;2023-12-04T10:15:12;-1.50;99.90
7496;DHT22;3789;47.064;15.482;2023-12-04T10:17:43;-1.50;99.90
7496;DHT22;3789;47.064;15.482;2023-12-04T10:20:16;-1.80;99.90
7496;DHT22;3789;47.064;15.482;2023-12-04T10:22:55;-1.90;99.90
7496;DHT22;3789;47.064;15.482;2023-12-04T10:25:31;-1.80;99.90
7496;DHT22;3789;47.064;15.482;2023-12-04T10:28:13;-1.70;99.90
7496;DHT22;3789;47.064;15.482;2023-12-04T10:30:46;-1.70;99.90
7496;DHT22;3789;47.064;15.482;2023-12-04T10:33:14;-1.60;99.90
7496;DHT22;3789;47.064;15.482;2023-12-04T10:35:43;-1.60;99.90
7496;DHT22;3789;47.064;15.482;2023-12-04T10:38:22;-1.40;99.90
7496;DHT22;3789;47.064;15.482;2023-12-04T10:41:15;-1.20;99.90
7496;DHT22;3789;47.064;15.482;2023-12-04T10:43:48;-1.00;99.90
7496;DHT22;3789;47.064;15.482;2023-12-04T10:46:31;-1.10;99.90
7496;DHT22;3789;47.064;15.482;2023-12-04T10:49:03;-1.10;99.90
7496;DHT22;3789;47.064;15.482;2023-12-04T10:51:34;-0.90;99.90
7496;DHT22;3789;47.064;15.482;2023-12-04T10:54:05;-0.80;99.90
7496;DHT22;3789;47.064;15.482;2023-12-04T10:56:44;-0.90;99.90
7496;DHT22;3789;47.064;15.482;2023-12-04T10:59:21;-0.80;99.90
7496;DHT22;3789;47.064;15.482;2023-12-04T11:01:56;-0.70;99.90
7496;DHT22;3789;47.064;15.482;2023-12-04T11:04:31;-0.60;99.90
7496;DHT22;3789;47.064;15.482;2023-12-04T11:07:08;-0.60;99.90
7496;DHT22;3789;47.064;15.482;2023-12-04T11:09:49;-0.60;99.90
7496;DHT22;3789;47.064;15.482;2023-12-04T11:12:25;-0.70;99.90
7496;DHT22;3789;47.064;15.482;2023-12-04T11:14:58;-0.90;99.90
7496;DHT22;3789;47.064;15.482;2023-12-04T11:17:42;-0.90;99.90
7496;DHT22;3789;47.064;15.482;2023-12-04T11:20:17;-0.80;99.90
7496;DHT22;3789;47.064;15.482;2023-12-04T11:22:47;-0.80;99.90
7496;DHT22;3789;47.064;15.482;2023-12-04T11:25:18;-1.00;99.90
7496;DHT22;3789;47.064;15.482;2023-12-04T11:27:54;-1.10;99.90
7496;DHT22;3789;47.064;15.482;2023-12-04T11:30:24;-1.00;99.90
7496;DHT22;3789;47.064;15.482;2023-12-04T11:32:54;-1.00;99.90
7496;DHT22;3789;47.064;15.482;2023-12-04T11:35:27;-1.00;99.90
7496;DHT22;3789;47.064;15.482;2023-12-04T11:37:56;-0.90;99.90
7496;DHT22;3789;47.064;15.482;2023-12-04T11:40:32;-0.80;99.90
7496;DHT22;3789;47.064;15.482;2023-12-04T11:43:27;-0.80;99.90
7496;DHT22;3789;47.064;15.482;2023-12-04T11:46:11;-0.80;99.90
7496;DHT22;3789;47.064;15.482;2023-12-04T11:48:47;-0.80;99.90
7496;DHT22;3789;47.064;15.482;2023-12-04T11:54:22;-1.10;99.90
7496;DHT22;3789;47.064;15.482;2023-12-04T12:03:02;-1.40;99.90
7496;DHT22;3789;47.064;15.482;2023-12-04T12:05:49;-1.40;99.90
7496;DHT22;3789;47.064;15.482;2023-12-04T12:08:23;-1.30;99.90
7496;DHT22;3789;47.064;15.482;2023-12-04T12:10:56;-1.40;99.90
7496;DHT22;3789;47.064;15.482;2023-12-04T12:13:26;-1.40;99.90
7496;DHT22;3789;47.064;15.482;2023-12-04T12:16:04;-1.20;99.90
7496;DHT22;3789;47.064;15.482;2023-12-04T12:18:35;-1.10;99.90
7496;DHT22;3789;47.064;15.482;2023-12-04T12:21:17;-1.00;99.90
7496;DHT22;3789;47.064;15.482;2023-12-04T12:23:46;-0.90;99.90
7496;DHT22;3789;47.064;15.482;2023-12-04T12:26:16;-0.80;99.90
7496;DHT22;3789;47.064;15.482;2023-12-04T12:28:45;-0.60;99.90
7496;DHT22;3789;47.064;15.482;2023-12-04T12:31:14;-0.70;99.90
7496;DHT22;3789;47.064;15.482;2023-12-04T12:33:42;-0.70;99.90
7496;DHT22;3789;47.064;15.482;2023-12-04T12:36:10;-0.70;99.90
7496;DHT22;3789;47.064;15.482;2023-12-04T12:38:47;-0.70;99.90
7496;DHT22;3789;47.064;15.482;2023-12-04T12:41:26;-0.90;99.90
7496;DHT22;3789;47.064;15.482;2023-12-04T12:44:04;-0.90;99.90
7496;DHT22;3789;47.064;15.482;2023-12-04T12:46:36;-0.90;99.90
7496;DHT22;3789;47.064;15.482;2023-12-04T12:49:05;-0.90;99.90
7496;DHT22;3789;47.064;15.482;2023-12-04T12:51:37;-1.00;99.90
7496;DHT22;3789;47.064;15.482;2023-12-04T12:54:07;-1.00;99.90
7496;DHT22;3789;47.064;15.482;2023-12-04T12:56:38;-1.00;99.90
7496;DHT22;3789;47.064;15.482;2023-12-04T12:59:08;-1.10;99.90
7496;DHT22;3789;47.064;15.482;2023-12-04T13:01:39;-1.00;99.90
7496;DHT22;3789;47.064;15.482;2023-12-04T13:04:13;-0.90;99.90
7496;DHT22;3789;47.064;15.482;2023-12-04T13:06:48;-0.80;99.90
7496;DHT22;3789;47.064;15.482;2023-12-04T13:09:19;-0.60;99.90
7496;DHT22;3789;47.064;15.482;2023-12-04T13:11:48;-0.90;99.90
7496;DHT22;3789;47.064;15.482;2023-12-04T13:14:27;-1.00;99.90
7496;DHT22;3789;47.064;15.482;2023-12-04T13:16:58;-0.80;99.90
7496;DHT22;3789;47.064;15.482;2023-12-04T13:19:32;-0.80;99.90
7496;DHT22;3789;47.064;15.482;2023-12-04T13:22:03;-0.70;99.90
7496;DHT22;3789;47.064;15.482;2023-12-04T13:24:41;-0.90;99.90
7496;DHT22;3789;47.064;15.482;2023-12-04T13:27:13;-1.40;99.90
7496;DHT22;3789;47.064;15.482;2023-12-04T13:29:42;-1.40;99.90
7496;DHT22;3789;47.064;15.482;2023-12-04T13:32:19;-1.40;99.90
7496;DHT22;3789;47.064;15.482;2023-12-04T13:35:08;-1.50;99.90
7496;DHT22;3789;47.064;15.482;2023-12-04T13:37:38;-1.50;99.90
7496;DHT22;3789;47.064;15.482;2023-12-04T13:40:09;-1.30;99.90
7496;DHT22;3789;47.064;15.482;2023-12-04T13:42:52;-1.20;99.90
7496;DHT22;3789;47.064;15.482;2023-12-04T13:45:43;-1.00;99.90
7496;DHT22;3789;47.064;15.482;2023-12-04T13:48:19;-1.10;99.90
7496;DHT22;3789;47.064;15.482;2023-12-04T13:50:49;-1.20;99.90
7496;DHT22;3789;47.064;15.482;2023-12-04T13:53:21;-1.30;99.90
7496;DHT22;3789;47.064;15.482;2023-12-04T13:56:00;-1.50;99.90
7496;DHT22;3789;47.064;15.482;2023-12-04T13:58:49;-1.40;99.90
7496;DHT22;3789;47.064;15.482;2023-12-04T14:01:41;-1.50;99.90
7496;DHT22;3789;47.064;15.482;2023-12-04T14:04:12;-1.60;99.90
7496;DHT22;3789;47.064;15.482;2023-12-04T14:06:48;-1.50;99.90
7496;DHT22;3789;47.064;15.482;2023-12-04T14:09:21;-1.70;99.90
7496;DHT22;3789;47.064;15.482;2023-12-04T14:11:50;-1.70;99.90
7496;DHT22;3789;47.064;15.482;2023-12-04T14:14:27;-1.70;99.90
7496;DHT22;3789;47.064;15.482;2023-12-04T14:17:02;-1.80;99.90
7496;DHT22;3789;47.064;15.482;2023-12-04T14:19:35;-1.70;99.90
7496;DHT22;3789;47.064;15.482;2023-12-04T14:22:10;-1.70;99.90
7496;DHT22;3789;47.064;15.482;2023-12-04T14:24:47;-1.70;99.90
7496;DHT22;3789;47.064;15.482;2023-12-04T14:27:16;-1.80;99.90
7496;DHT22;3789;47.064;15.482;2023-12-04T14:29:45;-1.90;99.90
7496;DHT22;3789;47.064;15.482;2023-12-04T14:32:16;-1.90;99.90
7496;DHT22;3789;47.064;15.482;2023-12-04T14:34:52;-2.00;99.90
7496;DHT22;3789;47.064;15.482;2023-12-04T14:37:22;-1.90;99.90
7496;DHT22;3789;47.064;15.482;2023-12-04T14:40:00;-1.80;99.90
7496;DHT22;3789;47.064;15.482;2023-12-04T14:42:30;-1.60;99.90
7496;DHT22;3789;47.064;15.482;2023-12-04T14:44:59;-1.70;99.90
7496;DHT22;3789;47.064;15.482;2023-12-04T14:47:34;-1.80;99.90
7496;DHT22;3789;47.064;15.482;2023-12-04T14:50:04;-1.90;99.90
7496;DHT22;3789;47.064;15.482;2023-12-04T14:52:39;-1.90;99.90
7496;DHT22;3789;47.064;15.482;2023-12-04T14:55:21;-1.70;99.90
7496;DHT22;3789;47.064;15.482;2023-12-04T14:57:58;-1.80;99.90
7496;DHT22;3789;47.064;15.482;2023-12-04T15:00:32;-1.80;99.90
7496;DHT22;3789;47.064;15.482;2023-12-04T15:03:21;-1.80;99.90
7496;DHT22;3789;47.064;15.482;2023-12-04T15:06:11;-1.90;99.90
7496;DHT22;3789;47.064;15.482;2023-12-04T15:09:07;-1.70;99.90
7496;DHT22;3789;47.064;15.482;2023-12-04T15:11:55;-1.70;99.90
7496;DHT22;3789;47.064;15.482;2023-12-04T15:14:45;-1.70;99.90
7496;DHT22;3789;47.064;15.482;2023-12-04T15:17:36;-1.60;99.90
7496;DHT22;3789;47.064;15.482;2023-12-04T15:20:40;-1.60;99.90
7496;DHT22;3789;47.064;15.482;2023-12-04T15:23:10;-1.60;99.90
7496;DHT22;3789;47.064;15.482;2023-12-04T15:25:48;-1.60;99.90
7496;DHT22;3789;47.064;15.482;2023-12-04T15:28:17;-1.70;99.90
7496;DHT22;3789;47.064;15.482;2023-12-04T15:30:46;-1.70;99.90
7496;DHT22;3789;47.064;15.482;2023-12-04T15:33:16;-1.80;99.90
7496;DHT22;3789;47.064;15.482;2023-12-04T15:35:44;-1.90;99.90
7496;DHT22;3789;47.064;15.482;2023-12-04T15:38:22;-1.90;99.90
7496;DHT22;3789;47.064;15.482;2023-12-04T15:40:51;-2.00;99.90
7496;DHT22;3789;47.064;15.482;2023-12-04T15:43:31;-1.90;99.90
7496;DHT22;3789;47.064;15.482;2023-12-04T15:46:01;-1.90;99.90
7496;DHT22;3789;47.064;15.482;2023-12-04T15:48:44;-1.90;99.90
7496;DHT22;3789;47.064;15.482;2023-12-04T15:51:16;-1.90;99.90
7496;DHT22;3789;47.064;15.482;2023-12-04T15:53:54;-1.90;99.90
7496;DHT22;3789;47.064;15.482;2023-12-04T15:56:29;-1.90;99.90
7496;DHT22;3789;47.064;15.482;2023-12-04T15:59:06;-1.90;99.90
7496;DHT22;3789;47.064;15.482;2023-12-04T16:01:36;-1.90;99.90
7496;DHT22;3789;47.064;15.482;2023-12-04T16:04:06;-1.80;99.90
7496;DHT22;3789;47.064;15.482;2023-12-04T16:06:37;-1.90;99.90
7496;DHT22;3789;47.064;15.482;2023-12-04T16:09:15;-1.80;99.90
7496;DHT22;3789;47.064;15.482;2023-12-04T16:11:48;-1.80;99.90
7496;DHT22;3789;47.064;15.482;2023-12-04T16:14:17;-1.90;99.90
7496;DHT22;3789;47.064;15.482;2023-12-04T16:16:47;-1.90;99.90
7496;DHT22;3789;47.064;15.482;2023-12-04T16:19:20;-1.90;99.90
7496;DHT22;3789;47.064;15.482;2023-12-04T16:21:48;-1.90;99.90
7496;DHT22;3789;47.064;15.482;2023-12-04T16:24:20;-1.90;99.90
7496;DHT22;3789;47.064;15.482;2023-12-04T16:26:52;-2.00;99.90
7496;DHT22;3789;47.064;15.482;2023-12-04T16:29:29;-2.10;99.90
7496;DHT22;3789;47.064;15.482;2023-12-04T16:32:11;-2.00;99.90
7496;DHT22;3789;47.064;15.482;2023-12-04T16:34:48;-2.10;99.90
7496;DHT22;3789;47.064;15.482;2023-12-04T16:37:16;-2.10;99.90
7496;DHT22;3789;47.064;15.482;2023-12-04T16:39:54;-2.00;99.90
7496;DHT22;3789;47.064;15.482;2023-12-04T16:42:26;-2.00;99.90
7496;DHT22;3789;47.064;15.482;2023-12-04T16:44:57;-2.00;99.90
7496;DHT22;3789;47.064;15.482;2023-12-04T16:47:31;-2.00;99.90
7496;DHT22;3789;47.064;15.482;2023-12-04T16:50:10;-2.00;99.90
7496;DHT22;3789;47.064;15.482;2023-12-04T16:52:38;-2.00;99.90
7496;DHT22;3789;47.064;15.482;2023-12-04T16:55:08;-2.00;99.90
7496;DHT22;3789;47.064;15.482;2023-12-04T16:57:37;-2.00;99.90
7496;DHT22;3789;47.064;15.482;2023-12-04T17:00:11;-1.90;99.90
7496;DHT22;3789;47.064;15.482;2023-12-04T17:02:44;-1.90;99.90
7496;DHT22;3789;47.064;15.482;2023-12-04T17:05:16;-1.90;99.90
7496;DHT22;3789;47.064;15.482;2023-12-04T17:07:52;-2.00;99.90
7496;DHT22;3789;47.064;15.482;2023-12-04T17:10:21;-2.00;99.90
7496;DHT22;3789;47.064;15.482;2023-12-04T17:12:51;-2.00;99.90
7496;DHT22;3789;47.064;15.482;2023-12-04T17:15:22;-2.00;99.90
7496;DHT22;3789;47.064;15.482;2023-12-04T17:18:00;-2.00;99.90
7496;DHT22;3789;47.064;15.482;2023-12-04T17:20:27;-2.00;99.90
7496;DHT22;3789;47.064;15.482;2023-12-04T17:22:59;-2.00;99.90
7496;DHT22;3789;47.064;15.482;2023-12-04T17:25:28;-2.00;99.90